Time;durP1;ratioP1;P1;durP2;ratioP2;P2;SDS_P1;SDS_P2;PMS_P1;PMS_P2;Temp;Humidity;BMP_temperature;BMP_pressure;BME280_temperature;BME280_humidity;BME280_pressure;Samples;Min_cycle;Max_cycle;Signal;HPM_P1;HPM_P2
2022/03/19 00:01:55;;;;;;;;;35.75;31.75;;;;;-146.25;100.00;57879.81;5053966;28;45540;-76
2022/03/19 00:04:20;;;;;;;;;30.75;29.00;;;;;-146.25;100.00;57879.81;5050320;28;46177;-76
2022/03/19 00:06:47;;;;;;;;;31.25;26.00;;;;;-146.25;100.00;57879.81;5051027;28;45454;-74
2022/03/19 00:09:13;;;;;;;;;27.25;21.50;;;;;-146.25;100.00;57879.81;5049963;28;45584;-74
2022/03/19 00:11:40;;;;;;;;;26.75;22.25;;;;;-146.25;100.00;57879.81;5054370;28;45547;-83
2022/03/19 00:14:06;;;;;;;;;21.50;20.75;;;;;-146.25;100.00;57879.81;5051900;28;47241;-74
2022/03/19 00:16:31;;;;;;;;;24.25;22.75;;;;;-146.25;100.00;57879.81;5050294;28;45572;-74
2022/03/19 00:18:57;;;;;;;;;33.00;29.75;;;;;-146.25;100.00;57879.81;5050748;28;45752;-81
2022/03/19 00:21:23;;;;;;;;;31.00;22.50;;;;;-146.25;100.00;57879.81;5066999;28;45688;-81
2022/03/19 00:23:48;;;;;;;;;24.50;23.75;;;;;-146.25;100.00;57879.81;5051048;28;46638;-82
2022/03/19 00:26:15;;;;;;;;;23.50;20.50;;;;;-146.25;100.00;57879.81;5046766;28;45441;-82
2022/03/19 00:28:41;;;;;;;;;25.50;23.00;;;;;-146.25;100.00;57879.81;5051466;28;45364;-81
2022/03/19 00:31:09;;;;;;;;;24.75;22.50;;;;;-146.25;100.00;57879.81;5049770;28;45408;-82
2022/03/19 00:33:35;;;;;;;;;27.00;22.75;;;;;-146.25;100.00;57879.81;5050133;28;45432;-81
2022/03/19 00:36:01;;;;;;;;;23.75;23.75;;;;;-146.25;100.00;57879.81;5050827;28;45723;-83
2022/03/19 00:38:26;;;;;;;;;27.25;22.00;;;;;-146.25;100.00;57879.81;5051479;28;45457;-80
2022/03/19 00:40:52;;;;;;;;;17.00;15.50;;;;;-146.25;100.00;57879.81;5048684;28;45822;-75
2022/03/19 00:43:21;;;;;;;;;20.25;18.50;;;;;-146.25;100.00;57879.81;5049954;28;45700;-81
2022/03/19 00:45:48;;;;;;;;;26.00;22.75;;;;;-146.25;100.00;57879.81;5067302;28;45465;-74
2022/03/19 00:48:14;;;;;;;;;29.25;25.50;;;;;-146.25;100.00;57879.81;5049678;28;45782;-81
2022/03/19 00:50:40;;;;;;;;;23.25;21.25;;;;;-146.25;100.00;57879.81;5048087;28;45497;-82
2022/03/19 00:53:05;;;;;;;;;26.50;24.75;;;;;-146.25;100.00;57879.81;5048275;28;46150;-76
2022/03/19 00:55:31;;;;;;;;;29.75;21.00;;;;;-146.25;100.00;57879.81;5050713;28;45477;-82
2022/03/19 00:57:56;;;;;;;;;21.50;18.50;;;;;-146.25;100.00;57879.81;5052286;28;45330;-82
2022/03/19 01:00:26;;;;;;;;;24.75;20.25;;;;;-146.25;100.00;57879.81;5049631;28;45468;-76
2022/03/19 01:02:54;;;;;;;;;19.75;18.25;;;;;-146.25;100.00;57879.81;5050495;28;45547;-79
2022/03/19 01:05:21;;;;;;;;;26.25;22.00;;;;;-146.25;100.00;57879.81;5047370;28;45416;-82
2022/03/19 01:07:49;;;;;;;;;17.50;16.75;;;;;-146.25;100.00;57879.81;5049537;28;45496;-74
2022/03/19 01:10:17;;;;;;;;;24.75;20.75;;;;;-146.25;100.00;57879.81;5053345;28;45613;-82
2022/03/19 01:12:43;;;;;;;;;24.50;21.75;;;;;-146.25;100.00;57879.81;5050167;28;45815;-82
2022/03/19 01:15:09;;;;;;;;;29.00;24.25;;;;;-146.25;100.00;57879.81;5068240;28;45494;-82
2022/03/19 01:17:36;;;;;;;;;24.00;20.75;;;;;-146.25;100.00;57879.81;5049864;28;45544;-81
2022/03/19 01:20:03;;;;;;;;;24.00;20.00;;;;;-146.25;100.00;57879.81;5050769;28;45517;-82
2022/03/19 01:22:29;;;;;;;;;18.25;17.00;;;;;-146.25;100.00;57879.81;5053483;28;46637;-81
2022/03/19 01:24:56;;;;;;;;;24.00;16.50;;;;;-146.25;100.00;57879.81;5049097;28;45462;-81
2022/03/19 01:27:22;;;;;;;;;18.50;15.25;;;;;-146.25;100.00;57879.81;5049359;28;45468;-82
2022/03/19 01:29:48;;;;;;;;;17.75;15.75;;;;;-146.25;100.00;57879.81;5047668;28;45732;-76
2022/03/19 01:32:14;;;;;;;;;22.25;20.25;;;;;-146.25;100.00;57879.81;5056262;28;45686;-82
2022/03/19 01:34:40;;;;;;;;;19.00;18.25;;;;;-146.25;100.00;57879.81;5049071;28;45452;-74
2022/03/19 01:37:06;;;;;;;;;22.25;19.00;;;;;-146.25;100.00;57879.81;5055601;28;45505;-73
2022/03/19 01:39:32;;;;;;;;;21.00;18.00;;;;;-146.25;100.00;57879.81;5056913;28;45481;-80
2022/03/19 01:41:57;;;;;;;;;21.25;19.75;;;;;-146.25;100.00;57879.81;5055997;28;47473;-80
2022/03/19 01:44:23;;;;;;;;;19.25;15.50;;;;;-146.25;100.00;57879.81;5057154;28;45497;-82
2022/03/19 01:46:58;;;;;;;;;24.50;19.00;;;;;-146.25;100.00;57879.81;5055919;28;45328;-81
2022/03/19 01:49:24;;;;;;;;;17.50;16.00;;;;;-146.25;100.00;57879.81;5047892;28;45737;-74
2022/03/19 01:51:51;;;;;;;;;13.25;12.00;;;;;-146.25;100.00;57879.81;5056339;28;46442;-82
2022/03/19 01:54:22;;;;;;;;;20.00;18.25;;;;;-146.25;100.00;57879.81;5058555;28;45473;-81
2022/03/19 01:56:49;;;;;;;;;18.75;14.75;;;;;-146.25;100.00;57879.81;5072132;28;45363;-74
2022/03/19 01:59:16;;;;;;;;;21.00;19.75;;;;;-146.25;100.00;57879.81;5055824;28;45898;-82
2022/03/19 02:01:43;;;;;;;;;22.50;19.50;;;;;-146.25;100.00;57879.81;5055882;28;46208;-82
2022/03/19 02:04:09;;;;;;;;;23.00;22.50;;;;;-146.25;100.00;57879.81;5072066;28;45572;-81
2022/03/19 02:06:35;;;;;;;;;24.50;19.75;;;;;-146.25;100.00;57879.81;5068417;28;45518;-74
2022/03/19 02:09:01;;;;;;;;;25.50;24.00;;;;;-146.25;100.00;57879.81;5059298;28;45386;-74
2022/03/19 02:11:26;;;;;;;;;27.00;24.00;;;;;-146.25;100.00;57879.81;5055801;28;46170;-78
2022/03/19 02:13:52;;;;;;;;;30.75;26.25;;;;;-146.25;100.00;57879.81;5056846;28;45288;-82
2022/03/19 02:16:19;;;;;;;;;25.75;25.25;;;;;-146.25;100.00;57879.81;5056305;28;45461;-81
2022/03/19 02:18:45;;;;;;;;;27.25;23.75;;;;;-146.25;100.00;57879.81;5056085;28;45457;-73
2022/03/19 02:21:10;;;;;;;;;21.25;20.00;;;;;-146.25;100.00;57879.81;5054638;28;46072;-81
2022/03/19 02:26:31;;;;;;;;;20.25;18.25;;;;;-146.25;100.00;57879.81;5036418;28;45552;-74
2022/03/19 02:28:56;;;;;;;;;18.50;14.75;;;;;-146.25;100.00;57879.81;5055848;28;45425;-74
2022/03/19 02:31:22;;;;;;;;;20.00;16.50;;;;;-146.25;100.00;57879.81;5056538;28;45534;-74
2022/03/19 02:33:47;;;;;;;;;18.50;17.25;;;;;-146.25;100.00;57879.81;5056169;28;45481;-74
2022/03/19 02:36:13;;;;;;;;;16.25;14.25;;;;;-146.25;100.00;57879.81;5056723;28;45325;-74
2022/03/19 02:38:39;;;;;;;;;18.75;16.50;;;;;-146.25;100.00;57879.81;5058788;28;45462;-74
2022/03/19 02:41:05;;;;;;;;;22.75;18.25;;;;;-146.25;100.00;57879.81;5075435;27;45675;-74
2022/03/19 02:43:30;;;;;;;;;22.50;15.25;;;;;-146.25;100.00;57879.81;5059820;28;45530;-74
2022/03/19 02:45:56;;;;;;;;;17.50;13.50;;;;;-146.25;100.00;57879.81;5051654;28;45514;-74
2022/03/19 02:48:22;;;;;;;;;18.25;17.00;;;;;-146.25;100.00;57879.81;5055641;28;45641;-73
2022/03/19 02:50:47;;;;;;;;;20.50;18.25;;;;;-146.25;100.00;57879.81;5039835;28;46059;-74
2022/03/19 02:53:13;;;;;;;;;16.75;11.00;;;;;-146.25;100.00;57879.81;5055940;28;45448;-74
2022/03/19 02:55:40;;;;;;;;;14.50;14.00;;;;;-146.25;100.00;57879.81;5060084;28;45464;-74
2022/03/19 02:58:07;;;;;;;;;14.25;12.25;;;;;-146.25;100.00;57879.81;5059639;28;45629;-81
2022/03/19 03:00:34;;;;;;;;;17.75;13.75;;;;;-146.25;100.00;57879.81;5055709;28;45926;-74
2022/03/19 03:03:00;;;;;;;;;14.00;13.00;;;;;-146.25;100.00;57879.81;5057331;28;45417;-75
2022/03/19 03:05:26;;;;;;;;;14.75;12.50;;;;;-146.25;100.00;57879.81;5059372;28;45368;-74
2022/03/19 03:07:51;;;;;;;;;13.50;11.75;;;;;-146.25;100.00;57879.81;5059247;28;45564;-81
2022/03/19 03:10:18;;;;;;;;;18.00;12.75;;;;;-146.25;100.00;57879.81;5057693;28;46316;-74
2022/03/19 03:12:44;;;;;;;;;19.75;17.00;;;;;-146.25;100.00;57879.81;5058026;28;45202;-79
2022/03/19 03:15:10;;;;;;;;;14.00;12.75;;;;;-146.25;100.00;57879.81;5058293;28;45728;-81
2022/03/19 03:17:36;;;;;;;;;12.75;12.25;;;;;-146.25;100.00;57879.81;5056722;28;45509;-81
2022/03/19 03:20:03;;;;;;;;;16.50;14.00;;;;;-146.25;100.00;57879.81;5058699;28;46019;-81
2022/03/19 03:22:31;;;;;;;;;10.75;9.75;;;;;-146.25;100.00;57879.81;5074455;28;45581;-78
2022/03/19 03:24:56;;;;;;;;;12.75;12.00;;;;;-146.25;100.00;57879.81;5070496;28;45438;-75
2022/03/19 03:27:22;;;;;;;;;14.75;14.00;;;;;-146.25;100.00;57879.81;5047240;28;47097;-82
2022/03/19 03:29:47;;;;;;;;;15.00;13.00;;;;;-146.25;100.00;57879.81;5058678;28;45654;-81
2022/03/19 03:32:13;;;;;;;;;12.00;11.00;;;;;-146.25;100.00;57879.81;5058140;28;45417;-80
2022/03/19 03:34:40;;;;;;;;;12.50;9.75;;;;;-146.25;100.00;57879.81;5070784;27;45443;-74
2022/03/19 03:37:06;;;;;;;;;15.75;13.25;;;;;-146.25;100.00;57879.81;5052599;28;45618;-75
2022/03/19 03:39:31;;;;;;;;;15.25;13.50;;;;;-146.25;100.00;57879.81;5072745;28;45610;-74
2022/03/19 03:41:57;;;;;;;;;14.00;13.75;;;;;-146.25;100.00;57879.81;5073908;28;45525;-80
2022/03/19 03:44:22;;;;;;;;;11.50;11.00;;;;;-146.25;100.00;57879.81;5058348;28;45478;-74
2022/03/19 03:46:48;;;;;;;;;16.00;13.00;;;;;-146.25;100.00;57879.81;5058781;28;45578;-74
2022/03/19 03:49:14;;;;;;;;;16.00;16.00;;;;;-146.25;100.00;57879.81;5073188;28;45484;-81
2022/03/19 03:51:40;;;;;;;;;17.25;15.25;;;;;-146.25;100.00;57879.81;5074088;28;45351;-74
2022/03/19 03:54:07;;;;;;;;;19.25;16.50;;;;;-146.25;100.00;57879.81;5058572;28;45371;-73
2022/03/19 03:56:33;;;;;;;;;19.00;15.75;;;;;-146.25;100.00;57879.81;5070897;28;45609;-73
2022/03/19 03:58:58;;;;;;;;;20.25;17.25;;;;;-146.25;100.00;57879.81;5072706;28;47146;-82
2022/03/19 04:01:24;;;;;;;;;26.25;20.00;;;;;-146.25;100.00;57879.81;5057713;28;45408;-77
2022/03/19 04:03:49;;;;;;;;;19.50;16.75;;;;;-146.25;100.00;57879.81;5058208;28;45678;-73
2022/03/19 04:06:15;;;;;;;;;17.00;15.75;;;;;-146.25;100.00;57879.81;5058208;28;45407;-74
2022/03/19 04:08:41;;;;;;;;;21.00;17.50;;;;;-146.25;100.00;57879.81;5055890;28;46323;-74
2022/03/19 04:11:06;;;;;;;;;18.75;17.25;;;;;-146.25;100.00;57879.81;5070021;27;45985;-74
2022/03/19 04:13:34;;;;;;;;;21.50;17.00;;;;;-146.25;100.00;57879.81;5047999;28;46117;-73
2022/03/19 04:15:59;;;;;;;;;15.00;14.25;;;;;-146.25;100.00;57879.81;5058678;28;45504;-74
2022/03/19 04:18:26;;;;;;;;;17.75;16.25;;;;;-146.25;100.00;57879.81;5039996;28;46878;-82
2022/03/19 04:20:52;;;;;;;;;20.75;16.00;;;;;-146.25;100.00;57879.81;5073867;28;45487;-74
2022/03/19 04:23:18;;;;;;;;;16.00;13.50;;;;;-146.25;100.00;57879.81;5057911;28;45565;-81
2022/03/19 04:25:43;;;;;;;;;20.75;15.50;;;;;-146.25;100.00;57879.81;5056750;28;45482;-81
2022/03/19 04:28:11;;;;;;;;;19.00;17.50;;;;;-146.25;100.00;57879.81;5057487;28;46370;-74
2022/03/19 04:30:39;;;;;;;;;14.75;10.50;;;;;-146.25;100.00;57879.81;5057821;28;45743;-74
2022/03/19 04:33:05;;;;;;;;;12.25;12.00;;;;;-146.25;100.00;57879.81;5056129;28;45484;-73
2022/03/19 04:38:17;;;;;;;;;16.00;14.50;;;;;-146.25;100.00;57879.81;5041988;28;45765;-74
2022/03/19 04:40:45;;;;;;;;;35.25;29.00;;;;;-146.25;100.00;57879.81;5056936;28;45593;-73
2022/03/19 04:43:11;;;;;;;;;26.50;23.00;;;;;-146.25;100.00;57879.81;5055707;28;45542;-73
2022/03/19 04:45:38;;;;;;;;;22.00;19.25;;;;;-146.25;100.00;57879.81;5055605;28;45608;-74
2022/03/19 04:48:05;;;;;;;;;23.00;21.50;;;;;-146.25;100.00;57879.81;5069144;27;46522;-73
2022/03/19 04:50:31;;;;;;;;;22.50;18.75;;;;;-146.25;100.00;57879.81;5047176;28;45334;-73
2022/03/19 04:52:57;;;;;;;;;18.75;17.00;;;;;-146.25;100.00;57879.81;5058414;28;45382;-74
2022/03/19 04:55:23;;;;;;;;;22.00;16.25;;;;;-146.25;100.00;57879.81;5072919;28;45557;-73
2022/03/19 04:57:49;;;;;;;;;20.50;17.00;;;;;-146.25;100.00;57879.81;5057118;28;46505;-73
2022/03/19 05:00:17;;;;;;;;;16.25;15.50;;;;;-146.25;100.00;57879.81;5054733;28;45410;-81
2022/03/19 05:02:43;;;;;;;;;16.50;16.25;;;;;-146.25;100.00;57879.81;5056906;28;45735;-80
2022/03/19 05:05:09;;;;;;;;;14.50;13.00;;;;;-146.25;100.00;57879.81;5056893;28;45488;-77
2022/03/19 05:07:35;;;;;;;;;16.75;15.75;;;;;-146.25;100.00;57879.81;5041511;28;46100;-74
2022/03/19 05:12:50;;;;;;;;;12.50;11.75;;;;;-146.25;100.00;57879.81;5056989;28;45513;-81
2022/03/19 05:15:17;;;;;;;;;13.25;11.25;;;;;-146.25;100.00;57879.81;5056995;28;45427;-73
2022/03/19 05:17:43;;;;;;;;;16.00;11.50;;;;;-146.25;100.00;57879.81;5057021;28;46298;-74
2022/03/19 05:20:10;;;;;;;;;13.00;12.00;;;;;-146.25;100.00;57879.81;5056554;28;45533;-74
2022/03/19 05:22:36;;;;;;;;;14.00;14.00;;;;;-146.25;100.00;57879.81;5058130;28;45516;-80
2022/03/19 05:25:04;;;;;;;;;13.25;12.00;;;;;-146.25;100.00;57879.81;5057738;28;45449;-81
2022/03/19 05:27:29;;;;;;;;;17.25;11.25;;;;;-146.25;100.00;57879.81;5051785;28;45820;-75
2022/03/19 05:29:55;;;;;;;;;15.25;13.25;;;;;-146.25;100.00;57879.81;5053138;28;46030;-74
2022/03/19 05:32:22;;;;;;;;;9.00;8.00;;;;;-146.25;100.00;57879.81;5056074;28;45491;-74
2022/03/19 05:34:48;;;;;;;;;19.00;14.00;;;;;-146.25;100.00;57879.81;5056749;28;45550;-74
2022/03/19 05:37:17;;;;;;;;;15.50;12.75;;;;;-146.25;100.00;57879.81;5056173;28;45990;-73
2022/03/19 05:39:43;;;;;;;;;13.00;12.25;;;;;-146.25;100.00;57879.81;5054776;28;45406;-73
2022/03/19 05:42:13;;;;;;;;;14.00;11.50;;;;;-146.25;100.00;57879.81;5056227;28;45695;-74
2022/03/19 05:44:39;;;;;;;;;9.00;8.00;;;;;-146.25;100.00;57879.81;5056618;28;45631;-74
2022/03/19 05:47:05;;;;;;;;;16.75;13.75;;;;;-146.25;100.00;57879.81;5056508;28;46107;-73
2022/03/19 05:49:31;;;;;;;;;11.50;8.75;;;;;-146.25;100.00;57879.81;5071191;28;45445;-76
2022/03/19 05:51:58;;;;;;;;;19.75;19.75;;;;;-146.25;100.00;57879.81;5056270;28;45476;-73
2022/03/19 05:54:25;;;;;;;;;12.75;12.50;;;;;-146.25;100.00;57879.81;5056667;28;45577;-73
2022/03/19 05:56:51;;;;;;;;;22.25;21.50;;;;;-146.25;100.00;57879.81;5070341;28;46747;-80
2022/03/19 05:59:19;;;;;;;;;21.75;17.00;;;;;-146.25;100.00;57879.81;5054285;28;45632;-75
2022/03/19 06:01:45;;;;;;;;;18.50;14.00;;;;;-146.25;100.00;57879.81;5067999;28;45548;-80
2022/03/19 06:04:11;;;;;;;;;21.75;18.25;;;;;-146.25;100.00;57879.81;5050945;28;45264;-79
2022/03/19 06:06:36;;;;;;;;;14.25;14.00;;;;;-146.25;100.00;57879.81;5053316;28;45414;-78
2022/03/19 06:09:03;;;;;;;;;23.75;20.50;;;;;-146.25;100.00;57879.81;5050970;28;45426;-73
2022/03/19 06:11:29;;;;;;;;;12.50;11.00;;;;;-146.25;100.00;57879.81;5054732;28;45387;-80
2022/03/19 06:13:55;;;;;;;;;23.00;18.00;;;;;-146.25;100.00;57879.81;5054475;28;45446;-80
2022/03/19 06:16:21;;;;;;;;;33.50;29.75;;;;;-146.25;100.00;57879.81;5054442;28;45369;-80
2022/03/19 06:18:50;;;;;;;;;26.50;25.50;;;;;-146.25;100.00;57879.81;5054037;28;45810;-73
2022/03/19 06:21:16;;;;;;;;;24.25;23.75;;;;;-146.25;100.00;57879.81;5069478;28;45502;-80
2022/03/19 06:23:42;;;;;;;;;29.75;22.00;;;;;-146.25;100.00;57879.81;5054337;28;45560;-73
2022/03/19 06:26:07;;;;;;;;;11.75;11.00;;;;;-146.25;100.00;57879.81;5054238;28;45465;-80
2022/03/19 06:28:33;;;;;;;;;13.75;12.75;;;;;-146.25;100.00;57879.81;5050438;28;45447;-74
2022/03/19 06:30:58;;;;;;;;;17.50;17.50;;;;;-146.25;100.00;57879.81;5054414;28;45419;-73
2022/03/19 06:33:24;;;;;;;;;27.75;23.25;;;;;-146.25;100.00;57879.81;5068257;28;45624;-80
2022/03/19 06:38:33;;;;;;;;;20.25;20.00;;;;;-146.25;100.00;57879.81;5053149;28;45596;-73
2022/03/19 06:40:59;;;;;;;;;17.00;12.00;;;;;-146.25;100.00;57879.81;5053674;28;45379;-79
2022/03/19 06:43:26;;;;;;;;;16.50;15.50;;;;;-146.25;100.00;57879.81;5054293;28;45366;-80
2022/03/19 06:45:54;;;;;;;;;13.00;12.50;;;;;-146.25;100.00;57879.81;5054209;28;46233;-74
2022/03/19 06:48:20;;;;;;;;;17.00;16.50;;;;;-146.25;100.00;57879.81;5054283;28;45481;-73
2022/03/19 06:50:46;;;;;;;;;17.75;14.00;;;;;-146.25;100.00;57879.81;5054059;28;45869;-74
2022/03/19 06:53:13;;;;;;;;;14.25;13.25;;;;;-146.25;100.00;57879.81;5062668;28;46007;-74
2022/03/19 06:55:39;;;;;;;;;18.00;15.00;;;;;-146.25;100.00;57879.81;5064320;28;46351;-79
2022/03/19 06:58:04;;;;;;;;;26.50;21.75;;;;;-146.25;100.00;57879.81;5063948;27;45390;-80
2022/03/19 07:00:30;;;;;;;;;26.00;23.00;;;;;-146.25;100.00;57879.81;5063876;28;45539;-79
2022/03/19 07:02:55;;;;;;;;;21.00;19.50;;;;;-146.25;100.00;57879.81;5062999;28;45651;-80
2022/03/19 07:05:26;;;;;;;;;19.75;17.00;;;;;-146.25;100.00;57879.81;5077907;27;46904;-74
2022/03/19 07:07:53;;;;;;;;;19.50;18.00;;;;;-146.25;100.00;57879.81;5058697;28;45462;-81
2022/03/19 07:10:19;;;;;;;;;19.00;16.00;;;;;-146.25;100.00;57879.81;5062690;28;45606;-80
2022/03/19 07:12:46;;;;;;;;;21.50;18.00;;;;;-146.25;100.00;57879.81;5077620;27;45526;-79
2022/03/19 07:15:14;;;;;;;;;32.00;23.50;;;;;-146.25;100.00;57879.81;5059779;28;46341;-80
2022/03/19 07:17:40;;;;;;;;;27.50;25.00;;;;;-146.25;100.00;57879.81;5061978;28;45616;-76
2022/03/19 07:20:07;;;;;;;;;22.50;20.75;;;;;-146.25;100.00;57879.81;5064624;28;45602;-77
2022/03/19 07:22:58;;;;;;;;;18.50;15.00;;;;;-146.25;100.00;57879.81;5061039;28;45460;-81
2022/03/19 07:25:26;;;;;;;;;16.00;14.75;;;;;-146.25;100.00;57879.81;5066188;28;45638;-78
2022/03/19 07:27:54;;;;;;;;;18.75;17.00;;;;;-146.25;100.00;57879.81;5066200;28;45433;-80
2022/03/19 07:30:20;;;;;;;;;19.25;18.00;;;;;-146.25;100.00;57879.81;5065282;28;45512;-77
2022/03/19 07:32:46;;;;;;;;;23.75;19.75;;;;;-146.25;100.00;57879.81;5055977;28;45518;-81
2022/03/19 07:35:15;;;;;;;;;21.25;19.50;;;;;-146.25;100.00;57879.81;5041963;28;46328;-80
2022/03/19 07:37:42;;;;;;;;;16.00;14.75;;;;;-146.25;100.00;57879.81;5072725;28;45513;-80
2022/03/19 07:40:13;;;;;;;;;15.00;14.75;;;;;-146.25;100.00;57879.81;5057424;28;45429;-81
2022/03/19 07:42:40;;;;;;;;;14.25;14.25;;;;;-146.25;100.00;57879.81;5058110;28;45579;-77
2022/03/19 07:45:07;;;;;;;;;13.50;12.00;;;;;-146.25;100.00;57879.81;5041852;28;45791;-78
2022/03/19 07:47:34;;;;;;;;;17.50;14.00;;;;;-146.25;100.00;57879.81;5071922;28;45590;-73
2022/03/19 07:50:00;;;;;;;;;15.25;15.25;;;;;-146.25;100.00;57879.81;5070313;28;45288;-81
2022/03/19 07:52:26;;;;;;;;;24.00;20.25;;;;;-146.25;100.00;57879.81;5049338;28;45529;-85
2022/03/19 07:54:55;;;;;;;;;16.00;14.00;;;;;-146.25;100.00;57879.81;5065637;28;45567;-78
2022/03/19 07:57:23;;;;;;;;;16.25;14.75;;;;;-146.25;100.00;57879.81;5066040;28;45494;-78
2022/03/19 07:59:49;;;;;;;;;15.00;14.50;;;;;-146.25;100.00;57879.81;5066939;27;45559;-81
2022/03/19 08:02:16;;;;;;;;;23.75;23.50;;;;;-146.25;100.00;57879.81;5069188;28;45513;-79
2022/03/19 08:04:41;;;;;;;;;23.00;22.25;;;;;-146.25;100.00;57879.81;5065966;28;46244;-80
2022/03/19 08:07:08;;;;;;;;;15.75;15.00;;;;;-146.25;100.00;57879.81;5069553;28;45528;-77
2022/03/19 08:09:33;;;;;;;;;12.75;12.00;;;;;-146.25;100.00;57879.81;5065328;28;45497;-73
2022/03/19 08:12:00;;;;;;;;;15.50;13.75;;;;;-146.25;100.00;57879.81;5077431;27;45317;-79
2022/03/19 08:14:27;;;;;;;;;13.67;12.00;;;;;-146.25;100.00;57879.81;5060096;27;45684;-78
2022/03/19 08:16:53;;;;;;;;;12.00;11.67;;;;;-146.25;100.00;57879.81;5065431;28;45449;-77
2022/03/19 08:19:19;;;;;;;;;15.75;15.00;;;;;-146.25;100.00;57879.81;5068655;27;45730;-72
2022/03/19 08:21:45;;;;;;;;;14.50;12.00;;;;;-146.25;100.00;57879.81;5068293;27;45426;-70
2022/03/19 08:24:12;;;;;;;;;18.33;16.00;;;;;-146.25;100.00;57879.81;5059656;27;45753;-72
2022/03/19 08:26:39;;;;;;;;;14.00;13.00;;;;;-146.25;100.00;57879.81;5068181;27;46235;-72
2022/03/19 08:29:05;;;;;;;;;27.75;22.00;;;;;-146.25;100.00;57879.81;5064655;28;45644;-71
2022/03/19 08:31:32;;;;;;;;;15.00;15.00;;;;;-146.25;100.00;57879.81;5062744;27;45717;-73
2022/03/19 08:33:57;;;;;;;;;23.50;22.50;;;;;-146.25;100.00;57879.81;5066242;27;46420;-73
2022/03/19 08:36:24;;;;;;;;;39.25;34.50;;;;;-146.25;100.00;57879.81;5063297;28;45526;-72
2022/03/19 08:41:34;;;;;;;;;40.25;35.00;;;;;-146.25;100.00;57879.81;5062477;28;45465;-73
2022/03/19 08:44:00;;;;;;;;;46.00;36.75;;;;;-146.25;100.00;57879.81;5064585;28;45722;-72
2022/03/19 08:46:26;;;;;;;;;38.75;32.75;;;;;-146.25;100.00;57879.81;5064050;28;45645;-74
2022/03/19 08:48:52;;;;;;;;;34.50;32.00;;;;;-146.25;100.00;57879.81;5065967;27;45442;-73
2022/03/19 08:54:06;;;;;;;;;28.00;23.75;;;;;-146.25;100.00;57879.81;5063826;28;45408;-75
2022/03/19 08:56:33;;;;;;;;;28.75;26.00;;;;;-146.25;100.00;57879.81;5062493;28;45522;-74
2022/03/19 08:59:00;;;;;;;;;34.50;31.00;;;;;-146.25;100.00;57879.81;5065998;28;45660;-72
2022/03/19 09:01:25;;;;;;;;;23.33;20.00;;;;;-146.25;100.00;57879.81;5065519;28;45608;-72
2022/03/19 09:03:52;;;;;;;;;16.00;15.67;;;;;-146.25;100.00;57879.81;5063366;28;45913;-72
2022/03/19 09:06:18;;;;;;;;;19.33;19.00;;;;;-146.25;100.00;57879.81;5064842;28;45570;-72
2022/03/19 09:08:45;;;;;;;;;17.00;15.00;;;;;-146.25;100.00;57879.81;5058496;28;45650;-73
2022/03/19 09:11:12;;;;;;;;;19.67;16.00;;;;;-146.25;100.00;57879.81;5060434;28;46668;-72
2022/03/19 09:13:38;;;;;;;;;14.00;13.00;;;;;-146.25;100.00;57879.81;5064800;27;45685;-73
2022/03/19 09:16:05;;;;;;;;;15.67;15.67;;;;;-146.25;100.00;57879.81;5066140;28;45824;-72
2022/03/19 09:18:30;;;;;;;;;16.00;15.33;;;;;-146.25;100.00;57879.81;5080796;27;45597;-72
2022/03/19 09:20:57;;;;;;;;;16.33;15.33;;;;;-146.25;100.00;57879.81;5060778;28;45655;-73
2022/03/19 09:23:23;;;;;;;;;14.67;13.00;;;;;-146.25;100.00;57879.81;5047328;28;47867;-77
2022/03/19 09:25:48;;;;;;;;;14.33;13.67;;;;;-146.25;100.00;57879.81;5051562;28;45500;-78
2022/03/19 09:28:14;;;;;;;;;15.00;12.67;;;;;-146.25;100.00;57879.81;5055967;28;45409;-77
2022/03/19 09:30:39;;;;;;;;;48.00;40.25;;;;;-146.25;100.00;57879.81;5056134;28;45474;-77
2022/03/19 09:33:07;;;;;;;;;17.33;16.67;;;;;-146.25;100.00;57879.81;5054312;28;45672;-78
2022/03/19 09:35:33;;;;;;;;;16.67;15.00;;;;;-146.25;100.00;57879.81;5054542;28;45498;-77
2022/03/19 09:37:58;;;;;;;;;15.33;14.33;;;;;-146.25;100.00;57879.81;5057727;28;45551;-75
2022/03/19 09:40:24;;;;;;;;;13.67;13.33;;;;;-146.25;100.00;57879.81;5065720;28;45518;-72
2022/03/19 09:42:52;;;;;;;;;16.33;15.00;;;;;-146.25;100.00;57879.81;5055806;28;45774;-72
2022/03/19 09:45:19;;;;;;;;;11.33;10.67;;;;;-146.25;100.00;57879.81;5054385;28;45508;-72
2022/03/19 09:47:45;;;;;;;;;12.00;12.00;;;;;-146.25;100.00;57879.81;5056286;28;45410;-78
2022/03/19 09:50:11;;;;;;;;;15.67;14.00;;;;;-146.25;100.00;57879.81;5056071;28;45446;-75
2022/03/19 09:52:37;;;;;;;;;15.33;14.33;;;;;-146.25;100.00;57879.81;5034995;28;46465;-72
2022/03/19 09:55:04;;;;;;;;;14.67;14.67;;;;;-146.25;100.00;57879.81;5044389;28;45337;-78
2022/03/19 09:57:31;;;;;;;;;15.00;14.00;;;;;-146.25;100.00;57879.81;5055095;28;45403;-73
2022/03/19 09:59:57;;;;;;;;;14.00;13.00;;;;;-146.25;100.00;57879.81;5055427;28;45668;-76
2022/03/19 10:02:23;;;;;;;;;14.00;13.67;;;;;-146.25;100.00;57879.81;5054670;28;47752;-72
2022/03/19 10:04:57;;;;;;;;;13.33;12.67;;;;;-146.25;100.00;57879.81;5054965;28;45395;-75
2022/03/19 10:10:11;;;;;;;;;14.00;12.67;;;;;-146.25;100.00;57879.81;5065242;28;45748;-72
2022/03/19 10:12:39;;;;;;;;;13.00;11.67;;;;;-146.25;100.00;57879.81;5059872;28;46708;-72
2022/03/19 10:15:10;;;;;;;;;13.00;11.67;;;;;-146.25;100.00;57879.81;5063282;27;45636;-73
2022/03/19 10:17:38;;;;;;;;;16.00;15.67;;;;;-146.25;100.00;57879.81;5064048;28;45453;-72
2022/03/19 10:20:09;;;;;;;;;13.00;13.00;;;;;-146.25;100.00;57879.81;5062973;28;45675;-72
2022/03/19 10:22:39;;;;;;;;;12.67;11.00;;;;;-146.25;100.00;57879.81;5059843;28;46266;-71
2022/03/19 10:25:10;;;;;;;;;18.00;16.00;;;;;-146.25;100.00;57879.81;5066416;28;45938;-71
2022/03/19 10:27:43;;;;;;;;;21.67;20.00;;;;;-146.25;100.00;57879.81;5053396;28;45580;-73
2022/03/19 10:30:10;;;;;;;;;18.67;18.00;;;;;-146.25;100.00;57879.81;5045672;28;45517;-72
2022/03/19 10:32:39;;;;;;;;;18.33;16.33;;;;;-146.25;100.00;57879.81;5059980;28;46573;-74
2022/03/19 10:35:05;;;;;;;;;16.67;15.67;;;;;-146.25;100.00;57879.81;5046161;28;45366;-71
2022/03/19 10:37:41;;;;;;;;;15.67;13.67;;;;;-146.25;100.00;57879.81;5054839;28;45578;-73
2022/03/19 10:40:09;;;;;;;;;17.00;16.00;;;;;-146.25;100.00;57879.81;5054089;28;45478;-72
2022/03/19 10:42:38;;;;;;;;;15.00;14.33;;;;;-146.25;100.00;57879.81;5054758;28;46100;-78
2022/03/19 10:45:12;;;;;;;;;16.00;16.00;;;;;-146.25;100.00;57879.81;5054530;28;45436;-70
2022/03/19 10:47:45;;;;;;;;;17.33;15.33;;;;;-146.25;100.00;57879.81;5043077;28;45465;-71
2022/03/19 10:50:18;;;;;;;;;15.00;13.67;;;;;-146.25;100.00;57879.81;5055081;28;45516;-71
2022/03/19 10:52:46;;;;;;;;;17.00;15.67;;;;;-146.25;100.00;57879.81;5046090;28;45564;-71
2022/03/19 10:55:12;;;;;;;;;14.67;14.00;;;;;-146.25;100.00;57879.81;5055080;28;45572;-71
2022/03/19 10:57:38;;;;;;;;;14.67;13.33;;;;;-146.25;100.00;57879.81;5057367;28;45515;-71
2022/03/19 11:00:05;;;;;;;;;17.33;15.67;;;;;-146.25;100.00;57879.81;5057510;28;45458;-72
2022/03/19 11:02:31;;;;;;;;;14.33;14.00;;;;;-146.25;100.00;57879.81;5057683;28;45571;-71
2022/03/19 11:04:59;;;;;;;;;15.67;14.67;;;;;-146.25;100.00;57879.81;5057596;28;45850;-71
2022/03/19 11:07:30;;;;;;;;;14.33;12.67;;;;;-146.25;100.00;57879.81;5057136;28;45493;-71
2022/03/19 11:09:57;;;;;;;;;14.33;14.00;;;;;-146.25;100.00;57879.81;5055275;28;45590;-71
2022/03/19 11:12:27;;;;;;;;;16.33;14.67;;;;;-146.25;100.00;57879.81;5074974;27;45498;-72